createdAt,value
2022-07-26T00:01:31.831Z,66.30
2022-07-26T00:04:01.309Z,66.30
2022-07-26T00:06:30.082Z,66.40
2022-07-26T00:08:58.581Z,66.70
2022-07-26T00:11:27.303Z,66.80
2022-07-26T00:13:55.954Z,66.70
2022-07-26T00:16:24.558Z,66.70
2022-07-26T00:18:54.526Z,66.40
2022-07-26T00:21:23.162Z,66.40
2022-07-26T00:23:51.732Z,66.30
2022-07-26T00:26:20.536Z,66.50
2022-07-26T00:28:49.071Z,66.20
2022-07-26T00:31:17.915Z,66.10
2022-07-26T00:33:46.560Z,66.00
2022-07-26T00:36:16.601Z,66.10
2022-07-26T00:38:45.157Z,66.10
2022-07-26T00:41:13.760Z,66.10
2022-07-26T00:44:01.853Z,66.30
2022-07-26T00:46:30.614Z,66.20
2022-07-26T00:48:59.200Z,66.20
2022-07-26T00:51:30.062Z,66.30
2022-07-26T00:53:58.665Z,66.20
2022-07-26T00:56:27.370Z,66.20
2022-07-26T00:58:56.073Z,66.40
2022-07-26T01:01:24.642Z,66.60
2022-07-26T01:03:53.454Z,66.50
2022-07-26T01:06:26.944Z,66.60
2022-07-26T01:09:15.988Z,66.60
2022-07-26T01:11:45.917Z,66.80
2022-07-26T01:14:14.496Z,67.00
2022-07-26T01:16:44.232Z,67.00
2022-07-26T01:19:12.865Z,67.20
2022-07-26T01:21:43.063Z,67.20
2022-07-26T01:24:11.914Z,67.30
2022-07-26T01:26:40.536Z,67.40
2022-07-26T01:29:09.274Z,67.50
2022-07-26T01:31:40.266Z,67.50
2022-07-26T01:34:09.336Z,67.60
2022-07-26T01:36:38.159Z,67.80
2022-07-26T01:39:09.898Z,67.90
2022-07-26T01:41:57.039Z,68.10
2022-07-26T01:44:25.663Z,68.20
2022-07-26T01:46:54.163Z,68.30
2022-07-26T01:49:22.726Z,68.50
2022-07-26T01:51:51.402Z,68.60
2022-07-26T01:54:22.450Z,68.70
2022-07-26T01:57:12.317Z,68.80
2022-07-26T01:59:40.928Z,68.90
2022-07-26T02:02:09.571Z,68.90
2022-07-26T02:04:55.546Z,69.10
2022-07-26T02:07:24.157Z,69.30
2022-07-26T02:09:55.692Z,69.40
2022-07-26T02:12:24.249Z,69.60
2022-07-26T02:14:53.324Z,69.70
2022-07-26T02:17:22.006Z,69.80
2022-07-26T02:19:50.509Z,69.90
2022-07-26T02:22:20.144Z,70.10
2022-07-26T02:24:48.863Z,70.10
2022-07-26T02:27:18.910Z,70.20
2022-07-26T02:29:47.726Z,70.10
2022-07-26T02:32:16.309Z,70.20
2022-07-26T02:34:44.898Z,70.50
2022-07-26T02:37:13.580Z,70.70
2022-07-26T02:39:42.152Z,71.10
2022-07-26T02:42:10.697Z,71.30
2022-07-26T02:44:41.898Z,71.30
2022-07-26T02:47:12.776Z,71.50
2022-07-26T02:49:41.500Z,71.70
2022-07-26T02:52:09.937Z,71.70
2022-07-26T02:54:38.460Z,71.80
2022-07-26T02:57:06.962Z,71.80
2022-07-26T02:59:35.630Z,71.90
2022-07-26T03:02:05.650Z,71.90
2022-07-26T03:04:34.482Z,71.90
2022-07-26T03:07:03.014Z,71.90
2022-07-26T03:09:32.752Z,72.00
2022-07-26T03:12:01.276Z,72.00
2022-07-26T03:14:29.873Z,72.10
2022-07-26T03:16:58.491Z,72.10
2022-07-26T03:19:28.633Z,72.10
2022-07-26T03:21:57.314Z,72.10
2022-07-26T03:24:26.035Z,72.10
2022-07-26T03:26:54.675Z,71.90
2022-07-26T03:29:23.286Z,71.90
2022-07-26T03:31:52.116Z,71.70
2022-07-26T03:34:20.685Z,71.90
2022-07-26T03:36:50.909Z,71.90
2022-07-26T03:39:19.571Z,72.00
2022-07-26T03:41:48.179Z,71.90
2022-07-26T03:44:16.995Z,71.80
2022-07-26T03:46:45.569Z,71.60
2022-07-26T03:49:16.878Z,71.50
2022-07-26T03:52:06.038Z,71.40
2022-07-26T03:54:34.761Z,71.50
2022-07-26T03:57:02.306Z,71.50
2022-07-26T03:59:30.968Z,71.60
2022-07-26T04:01:59.545Z,71.70
2022-07-26T04:04:28.122Z,71.80
2022-07-26T04:06:58.140Z,71.80
2022-07-26T04:09:33.462Z,71.80
2022-07-26T04:12:02.270Z,72.00
2022-07-26T04:14:30.864Z,72.00
2022-07-26T04:16:59.513Z,72.00
2022-07-26T04:19:28.096Z,72.00
2022-07-26T04:21:56.760Z,71.90
2022-07-26T04:24:25.802Z,71.90
2022-07-26T04:26:55.845Z,71.80
2022-07-26T04:29:24.601Z,71.00
2022-07-26T04:31:53.220Z,69.80
2022-07-26T04:34:21.965Z,69.00
2022-07-26T04:36:50.637Z,68.30
2022-07-26T04:39:24.687Z,67.60
2022-07-26T04:41:53.378Z,67.30
2022-07-26T04:44:23.279Z,66.90
2022-07-26T04:46:52.062Z,66.70
2022-07-26T04:49:20.664Z,66.40
2022-07-26T04:51:49.344Z,66.50
2022-07-26T04:54:20.990Z,66.80
2022-07-26T04:56:49.787Z,66.60
2022-07-26T04:59:21.884Z,66.70
2022-07-26T05:02:10.593Z,66.60
2022-07-26T05:04:39.289Z,66.30
2022-07-26T05:07:07.809Z,66.40
2022-07-26T05:09:36.494Z,66.60
2022-07-26T05:12:05.149Z,66.70
2022-07-26T05:14:33.670Z,67.00
2022-07-26T05:17:09.009Z,67.30
2022-07-26T05:20:02.986Z,67.30
2022-07-26T05:22:32.278Z,67.20
2022-07-26T05:25:00.840Z,67.30
2022-07-26T05:27:47.811Z,67.20
2022-07-26T05:30:16.468Z,67.00
2022-07-26T05:32:45.163Z,67.10
2022-07-26T05:35:15.162Z,67.10
2022-07-26T05:37:43.822Z,67.00
2022-07-26T05:40:12.769Z,67.10
2022-07-26T05:42:41.460Z,67.10
2022-07-26T05:45:10.726Z,67.10
2022-07-26T05:47:39.466Z,67.00
2022-07-26T05:50:08.446Z,67.10
2022-07-26T05:52:38.505Z,67.10
2022-07-26T05:55:07.855Z,67.20
2022-07-26T05:57:36.303Z,67.20
2022-07-26T06:00:05.574Z,67.00
2022-07-26T06:02:40.544Z,66.90
2022-07-26T06:05:09.683Z,66.70
2022-07-26T06:07:39.610Z,66.40
2022-07-26T06:10:08.791Z,66.30
2022-07-26T06:12:37.337Z,66.00
2022-07-26T06:15:15.579Z,65.60
2022-07-26T06:17:44.635Z,65.50
2022-07-26T06:20:13.469Z,65.50
2022-07-26T06:22:43.597Z,65.50
2022-07-26T06:25:12.300Z,65.10
2022-07-26T06:27:40.845Z,64.70
2022-07-26T06:30:10.111Z,64.20
2022-07-26T06:32:38.851Z,63.90
2022-07-26T06:35:07.775Z,63.40
2022-07-26T06:37:37.684Z,63.00
2022-07-26T06:40:08.730Z,62.60
2022-07-26T06:42:37.628Z,62.50
2022-07-26T06:45:07.203Z,62.30
2022-07-26T06:47:35.973Z,62.00
2022-07-26T06:50:04.876Z,61.40
2022-07-26T06:52:34.516Z,61.20
2022-07-26T06:55:03.528Z,60.60
2022-07-26T06:57:33.639Z,60.40
2022-07-26T07:00:14.508Z,60.00
2022-07-26T07:02:43.040Z,60.30
2022-07-26T07:05:12.469Z,60.60
2022-07-26T07:07:42.115Z,60.70
2022-07-26T07:10:12.601Z,60.20
2022-07-26T07:12:45.019Z,59.50
2022-07-26T07:15:13.773Z,59.30
2022-07-26T07:17:42.255Z,58.40
2022-07-26T07:20:11.349Z,56.90
2022-07-26T07:22:39.853Z,55.60
2022-07-26T07:25:08.614Z,54.50
2022-07-26T07:27:37.174Z,53.60
2022-07-26T07:30:08.536Z,52.80
2022-07-26T07:32:38.068Z,52.40
2022-07-26T07:35:12.551Z,51.60
2022-07-26T07:37:52.823Z,51.00
2022-07-26T07:40:23.547Z,50.40
2022-07-26T07:42:52.784Z,49.60
2022-07-26T07:45:22.873Z,48.90
2022-07-26T07:47:51.582Z,47.90
2022-07-26T07:50:20.273Z,47.60
2022-07-26T07:52:49.379Z,47.30
2022-07-26T07:55:36.732Z,46.80
2022-07-26T07:58:08.329Z,46.40
2022-07-26T08:00:38.454Z,46.00
2022-07-26T08:03:07.279Z,45.40
2022-07-26T08:05:40.446Z,45.00
2022-07-26T08:08:09.526Z,44.70
2022-07-26T08:10:41.859Z,44.50
2022-07-26T08:13:21.216Z,44.40
2022-07-26T08:15:52.103Z,44.30
2022-07-26T08:18:49.081Z,43.40
2022-07-26T08:21:27.523Z,42.60
2022-07-26T08:23:57.776Z,41.80
2022-07-26T08:26:26.443Z,41.60
2022-07-26T08:29:09.216Z,41.30
2022-07-26T08:31:39.454Z,41.50
2022-07-26T08:34:08.062Z,41.40
2022-07-26T08:36:36.786Z,41.00
2022-07-26T08:39:08.818Z,40.90
2022-07-26T08:41:40.504Z,40.80
2022-07-26T08:44:09.971Z,40.70
2022-07-26T08:46:41.442Z,40.60
2022-07-26T08:49:12.088Z,40.60
2022-07-26T08:51:43.329Z,40.40
2022-07-26T08:54:13.173Z,40.40
2022-07-26T08:56:43.546Z,39.90
2022-07-26T08:59:20.000Z,40.00
2022-07-26T09:01:58.500Z,40.10
2022-07-26T09:04:32.674Z,40.10
2022-07-26T09:07:04.775Z,40.20
2022-07-26T09:09:33.817Z,40.20
2022-07-26T09:12:14.825Z,40.20
2022-07-26T09:14:43.591Z,40.00
2022-07-26T09:17:13.660Z,40.00
2022-07-26T09:19:42.330Z,39.90
2022-07-26T09:22:12.253Z,40.10
2022-07-26T09:24:42.652Z,40.00
2022-07-26T09:27:12.490Z,40.10
2022-07-26T09:29:44.586Z,40.10
2022-07-26T09:32:17.494Z,40.10
2022-07-26T09:34:52.751Z,39.80
2022-07-26T09:37:43.311Z,39.50
2022-07-26T09:40:13.467Z,39.20
2022-07-26T09:42:54.412Z,39.20
2022-07-26T09:45:23.130Z,39.40
2022-07-26T09:47:53.403Z,39.60
2022-07-26T09:50:40.643Z,39.40
2022-07-26T09:53:10.281Z,38.90
2022-07-26T09:55:55.983Z,38.40
2022-07-26T09:58:25.457Z,38.10
2022-07-26T10:00:57.695Z,38.20
2022-07-26T10:03:33.121Z,38.40
2022-07-26T10:06:02.563Z,38.30
2022-07-26T10:08:31.379Z,38.20
2022-07-26T10:11:03.490Z,37.80
2022-07-26T10:13:32.203Z,37.90
2022-07-26T10:16:02.146Z,37.50
2022-07-26T10:18:49.651Z,37.80
2022-07-26T10:21:20.315Z,37.60
2022-07-26T10:23:49.211Z,37.60
2022-07-26T10:26:37.111Z,37.40
2022-07-26T10:29:20.993Z,36.60
2022-07-26T10:31:51.630Z,35.90
2022-07-26T10:34:33.090Z,35.70
2022-07-26T10:37:02.923Z,36.10
2022-07-26T10:39:31.454Z,36.30
2022-07-26T10:42:01.936Z,36.90
2022-07-26T10:44:31.571Z,36.70
2022-07-26T10:47:01.868Z,36.50
2022-07-26T10:49:36.328Z,36.70
2022-07-26T10:52:09.220Z,36.60
2022-07-26T10:54:56.104Z,36.50
2022-07-26T10:57:24.824Z,36.10
2022-07-26T10:59:56.194Z,36.00
2022-07-26T11:02:26.539Z,36.30
2022-07-26T11:05:02.572Z,36.10
2022-07-26T11:07:31.727Z,36.30
2022-07-26T11:10:00.974Z,36.80
2022-07-26T11:12:29.699Z,36.30
2022-07-26T11:14:59.528Z,36.40
2022-07-26T11:17:29.918Z,36.70
2022-07-26T11:19:58.961Z,36.50
2022-07-26T11:22:33.924Z,36.50
2022-07-26T11:25:02.763Z,36.00
2022-07-26T11:27:31.288Z,36.10
2022-07-26T11:30:04.671Z,36.20
2022-07-26T11:32:53.542Z,35.70
2022-07-26T11:35:22.322Z,35.10
2022-07-26T11:38:11.306Z,34.60
2022-07-26T11:40:43.942Z,34.60
2022-07-26T11:43:12.560Z,34.60
2022-07-26T11:45:41.854Z,34.40
2022-07-26T11:48:11.297Z,34.10
2022-07-26T11:50:39.947Z,34.00
2022-07-26T11:53:23.442Z,34.20
2022-07-26T11:55:51.965Z,34.00
2022-07-26T11:58:20.451Z,34.00
2022-07-26T12:00:49.147Z,33.70
2022-07-26T12:03:17.733Z,33.90
2022-07-26T12:06:02.422Z,33.60
2022-07-26T12:08:41.522Z,33.40
2022-07-26T12:11:10.760Z,32.40
2022-07-26T12:13:55.466Z,32.20
2022-07-26T12:16:44.945Z,32.30
2022-07-26T12:19:25.770Z,31.90
2022-07-26T12:21:55.780Z,31.80
2022-07-26T12:24:51.210Z,31.80
2022-07-26T12:27:22.928Z,31.80
2022-07-26T12:29:52.619Z,31.90
2022-07-26T12:32:22.035Z,31.90
2022-07-26T12:34:58.382Z,31.90
2022-07-26T12:37:36.294Z,31.90
2022-07-26T12:40:09.911Z,31.60
2022-07-26T12:43:02.115Z,31.30
2022-07-26T12:45:32.202Z,30.90
2022-07-26T12:48:01.832Z,30.90
2022-07-26T12:50:31.672Z,30.30
2022-07-26T12:53:01.723Z,30.10
2022-07-26T12:55:48.669Z,30.20
2022-07-26T12:58:18.750Z,30.10
2022-07-26T13:00:47.476Z,30.10
2022-07-26T13:03:16.013Z,30.90
2022-07-26T13:05:44.521Z,31.40
2022-07-26T13:08:13.155Z,31.60
2022-07-26T13:10:43.822Z,31.60
2022-07-26T13:13:12.731Z,31.50
2022-07-26T13:15:42.826Z,31.20
2022-07-26T13:18:11.474Z,31.30
2022-07-26T13:20:39.992Z,31.20
2022-07-26T13:23:13.149Z,32.00
2022-07-26T13:25:43.790Z,32.20
2022-07-26T13:28:12.410Z,32.50
2022-07-26T13:30:43.678Z,32.50
2022-07-26T13:33:12.726Z,32.40
2022-07-26T13:35:42.760Z,32.70
2022-07-26T13:38:11.574Z,32.80
2022-07-26T13:40:40.361Z,33.00
2022-07-26T13:43:09.337Z,33.20
2022-07-26T13:45:37.982Z,33.40
2022-07-26T13:48:08.637Z,33.50
2022-07-26T13:50:37.399Z,33.60
2022-07-26T13:53:05.914Z,33.50
2022-07-26T13:55:34.576Z,33.00
2022-07-26T13:58:07.712Z,32.90
2022-07-26T14:00:38.378Z,32.50
2022-07-26T14:03:08.504Z,32.50
2022-07-26T14:05:37.255Z,32.30
2022-07-26T14:08:06.169Z,32.40
2022-07-26T14:10:38.365Z,32.70
2022-07-26T14:13:25.249Z,32.90
2022-07-26T14:15:54.158Z,33.10
2022-07-26T14:18:24.084Z,33.10
2022-07-26T14:20:52.839Z,33.40
2022-07-26T14:23:21.451Z,33.50
2022-07-26T14:25:50.001Z,33.70
2022-07-26T14:28:18.683Z,34.20
2022-07-26T14:30:47.319Z,34.50
2022-07-26T14:33:15.953Z,34.90
2022-07-26T14:35:47.060Z,34.50
2022-07-26T14:38:22.399Z,34.80
2022-07-26T14:40:53.163Z,35.20
2022-07-26T14:43:21.769Z,35.30
2022-07-26T14:45:50.777Z,35.00
2022-07-26T14:48:31.787Z,34.60
2022-07-26T14:51:10.144Z,34.40
2022-07-26T14:53:38.995Z,34.50
2022-07-26T14:56:07.546Z,34.90
2022-07-26T14:58:54.707Z,35.40
2022-07-26T15:01:23.407Z,35.60
2022-07-26T15:03:51.965Z,35.80
2022-07-26T15:06:40.539Z,36.20
2022-07-26T15:09:09.325Z,36.30
2022-07-26T15:11:37.990Z,36.50
2022-07-26T15:14:06.758Z,36.90
2022-07-26T15:16:35.473Z,37.30
2022-07-26T15:19:04.279Z,37.50
2022-07-26T15:21:32.910Z,38.50
2022-07-26T15:24:03.025Z,38.30
2022-07-26T15:26:31.752Z,38.70
2022-07-26T15:29:00.248Z,39.00
2022-07-26T15:31:36.533Z,39.30
2022-07-26T15:34:09.112Z,39.30
2022-07-26T15:36:38.118Z,39.30
2022-07-26T15:39:23.759Z,39.60
2022-07-26T15:42:10.893Z,39.80
2022-07-26T15:44:43.449Z,40.00
2022-07-26T15:47:15.437Z,40.20
2022-07-26T15:49:59.558Z,40.80
2022-07-26T15:52:28.193Z,41.30
2022-07-26T15:54:58.259Z,41.60
2022-07-26T15:57:45.298Z,41.40
2022-07-26T16:00:15.117Z,41.00
2022-07-26T16:03:02.617Z,40.90
2022-07-26T16:05:31.249Z,40.80
2022-07-26T16:07:59.891Z,40.90
2022-07-26T16:10:48.324Z,41.10
2022-07-26T16:13:16.908Z,41.10
2022-07-26T16:15:45.642Z,41.40
2022-07-26T16:18:15.593Z,41.40
2022-07-26T16:20:44.218Z,41.70
2022-07-26T16:23:12.770Z,42.10
2022-07-26T16:25:41.719Z,42.60
2022-07-26T16:28:11.625Z,42.90
2022-07-26T16:30:41.768Z,43.10
2022-07-26T16:33:10.514Z,43.20
2022-07-26T16:35:39.063Z,43.30
2022-07-26T16:38:08.298Z,43.60
2022-07-26T16:40:36.850Z,43.80
2022-07-26T16:43:08.888Z,43.90
2022-07-26T16:45:42.226Z,43.90
2022-07-26T16:48:10.974Z,44.10
2022-07-26T16:50:39.611Z,44.40
2022-07-26T16:53:12.914Z,44.60
2022-07-26T16:55:41.794Z,44.80
2022-07-26T16:58:10.421Z,45.00
2022-07-26T17:00:39.014Z,45.20
2022-07-26T17:03:09.055Z,45.30
2022-07-26T17:05:37.918Z,45.60
2022-07-26T17:08:06.599Z,45.60
2022-07-26T17:10:35.234Z,45.70
2022-07-26T17:13:03.829Z,46.00
2022-07-26T17:15:32.533Z,46.20
2022-07-26T17:18:01.091Z,46.40
2022-07-26T17:20:31.446Z,46.50
2022-07-26T17:23:00.114Z,46.60
2022-07-26T17:25:28.709Z,46.70
2022-07-26T17:27:57.475Z,46.80
2022-07-26T17:30:26.187Z,47.20
2022-07-26T17:32:55.030Z,47.10
2022-07-26T17:35:23.740Z,47.20
2022-07-26T17:37:56.473Z,47.30
2022-07-26T17:40:25.922Z,47.50
2022-07-26T17:42:55.615Z,47.60
2022-07-26T17:45:24.245Z,47.60
2022-07-26T17:47:52.871Z,47.70
2022-07-26T17:50:38.139Z,47.60
2022-07-26T17:53:08.752Z,47.60
2022-07-26T17:55:37.321Z,47.50
2022-07-26T17:58:05.813Z,47.70
2022-07-26T18:00:34.712Z,47.70
2022-07-26T18:03:03.223Z,48.00
2022-07-26T18:05:37.050Z,48.00
2022-07-26T18:08:09.639Z,48.10
2022-07-26T18:10:38.400Z,48.20
2022-07-26T18:13:06.888Z,48.40
2022-07-26T18:15:35.648Z,48.40
2022-07-26T18:18:04.281Z,48.50
2022-07-26T18:20:33.614Z,48.50
2022-07-26T18:23:02.935Z,48.70
2022-07-26T18:25:33.045Z,48.80
2022-07-26T18:28:06.680Z,49.00
2022-07-26T18:30:35.964Z,49.10
2022-07-26T18:33:05.049Z,49.30
2022-07-26T18:35:33.825Z,49.30
2022-07-26T18:38:02.326Z,49.30
2022-07-26T18:40:33.208Z,49.30
2022-07-26T18:43:01.823Z,49.50
2022-07-26T18:45:30.254Z,49.60
2022-07-26T18:47:58.960Z,49.80
2022-07-26T18:50:31.064Z,50.10
2022-07-26T18:53:19.525Z,50.30
2022-07-26T18:55:49.757Z,50.50
2022-07-26T18:58:18.680Z,50.70
2022-07-26T19:00:53.447Z,51.00
2022-07-26T19:03:22.340Z,51.10
2022-07-26T19:05:51.083Z,51.20
2022-07-26T19:08:19.529Z,51.40
2022-07-26T19:10:49.719Z,51.60
2022-07-26T19:13:36.703Z,51.80
2022-07-26T19:16:05.492Z,51.80
2022-07-26T19:18:34.103Z,51.90
2022-07-26T19:21:02.850Z,51.90
2022-07-26T19:23:31.543Z,52.00
2022-07-26T19:26:01.739Z,52.00
2022-07-26T19:28:30.409Z,52.10
2022-07-26T19:30:59.042Z,52.20
2022-07-26T19:33:27.717Z,52.50
2022-07-26T19:35:56.449Z,52.70
2022-07-26T19:38:24.951Z,52.90
2022-07-26T19:40:55.368Z,53.00
2022-07-26T19:43:25.560Z,53.20
2022-07-26T19:45:54.260Z,53.40
2022-07-26T19:48:22.926Z,53.60
2022-07-26T19:50:52.702Z,54.00
2022-07-26T19:53:21.270Z,54.10
2022-07-26T19:55:49.887Z,54.50
2022-07-26T19:58:18.809Z,54.70
2022-07-26T20:00:49.024Z,55.00
2022-07-26T20:03:17.588Z,55.10
2022-07-26T20:05:46.099Z,55.20
2022-07-26T20:08:14.794Z,55.20
2022-07-26T20:10:43.487Z,55.20
2022-07-26T20:13:12.238Z,55.30
2022-07-26T20:15:40.710Z,55.40
2022-07-26T20:18:11.384Z,55.50
2022-07-26T20:20:40.509Z,55.60
2022-07-26T20:23:11.204Z,55.70
2022-07-26T20:25:39.840Z,55.70
2022-07-26T20:28:08.440Z,55.70
2022-07-26T20:30:37.203Z,55.80
2022-07-26T20:33:05.776Z,55.80
2022-07-26T20:35:36.070Z,55.80
2022-07-26T20:38:04.951Z,55.80
2022-07-26T20:40:33.754Z,55.70
2022-07-26T20:43:02.888Z,55.70
2022-07-26T20:45:31.533Z,55.70
2022-07-26T20:48:00.168Z,55.60
2022-07-26T20:50:28.821Z,55.70
2022-07-26T20:52:58.916Z,55.70
2022-07-26T20:55:27.805Z,55.60
2022-07-26T20:57:56.463Z,55.70
2022-07-26T21:00:26.373Z,55.60
2022-07-26T21:02:55.006Z,55.60
2022-07-26T21:05:23.453Z,55.50
2022-07-26T21:07:56.556Z,55.40
2022-07-26T21:10:30.704Z,55.50
2022-07-26T21:13:01.299Z,55.60
2022-07-26T21:15:29.923Z,55.60
2022-07-26T21:17:58.497Z,55.80
2022-07-26T21:20:27.198Z,55.80
2022-07-26T21:23:08.171Z,55.80
2022-07-26T21:25:43.199Z,55.90
2022-07-26T21:28:11.853Z,55.90
2022-07-26T21:30:40.347Z,55.90
2022-07-26T21:33:09.169Z,55.90
2022-07-26T21:35:37.697Z,55.90
2022-07-26T21:38:06.420Z,56.00
2022-07-26T21:40:35.310Z,56.00
2022-07-26T21:43:05.515Z,56.00
2022-07-26T21:45:34.202Z,56.20
2022-07-26T21:48:03.621Z,56.30
2022-07-26T21:50:32.358Z,56.30
2022-07-26T21:53:01.533Z,56.50
2022-07-26T21:55:48.768Z,56.60
2022-07-26T21:58:19.029Z,56.70
2022-07-26T22:00:47.863Z,56.90
2022-07-26T22:03:16.482Z,57.10
2022-07-26T22:05:45.593Z,57.30
2022-07-26T22:08:17.524Z,57.40
2022-07-26T22:10:46.340Z,57.50
2022-07-26T22:13:16.071Z,57.50
2022-07-26T22:15:46.092Z,57.50
2022-07-26T22:18:33.688Z,57.60
2022-07-26T22:21:02.496Z,57.60
2022-07-26T22:23:31.299Z,57.60
2022-07-26T22:26:02.136Z,57.70
2022-07-26T22:28:31.040Z,57.70
2022-07-26T22:31:01.080Z,57.60
2022-07-26T22:33:29.839Z,57.70
2022-07-26T22:35:58.330Z,57.80
2022-07-26T22:38:27.093Z,58.00
2022-07-26T22:40:55.589Z,58.10
2022-07-26T22:43:24.236Z,58.30
2022-07-26T22:45:52.837Z,58.50
2022-07-26T22:48:23.006Z,58.70
2022-07-26T22:50:51.714Z,58.70
2022-07-26T22:53:20.310Z,58.90
2022-07-26T22:55:48.936Z,58.90
2022-07-26T22:58:17.421Z,58.80
2022-07-26T23:00:46.130Z,58.90
2022-07-26T23:03:20.112Z,58.80
2022-07-26T23:05:52.315Z,58.90
2022-07-26T23:08:45.755Z,59.00
2022-07-26T23:11:09.993Z,59.10
2022-07-26T23:13:38.673Z,59.10
2022-07-26T23:16:07.307Z,59.20
2022-07-26T23:18:36.051Z,59.20
2022-07-26T23:21:24.608Z,59.30
2022-07-26T23:23:53.226Z,59.50
2022-07-26T23:26:21.736Z,59.50
2022-07-26T23:28:50.580Z,59.50
2022-07-26T23:31:19.088Z,59.80
2022-07-26T23:33:51.541Z,60.00
2022-07-26T23:36:25.393Z,60.20
2022-07-26T23:38:54.340Z,60.60
2022-07-26T23:41:23.022Z,61.10
2022-07-26T23:43:51.944Z,61.00
2022-07-26T23:46:20.447Z,61.30
2022-07-26T23:48:49.144Z,61.50
2022-07-26T23:51:17.858Z,61.80
2022-07-26T23:54:06.663Z,61.90
2022-07-26T23:56:35.252Z,62.00
2022-07-26T23:59:03.723Z,62.20
